createdAt,value
2017-10-11T00:00:33.099Z,17.36
2017-10-11T00:01:43.171Z,17.27
2017-10-11T00:02:53.572Z,17.31
2017-10-11T00:04:03.996Z,17.39
2017-10-11T00:05:13.788Z,17.4
2017-10-11T00:06:23.865Z,17.38
2017-10-11T00:13:19.965Z,17.35
2017-10-11T00:14:35.358Z,17.3
2017-10-11T00:15:45.445Z,17.31
2017-10-11T00:16:55.850Z,17.32
2017-10-11T00:18:05.907Z,17.36
2017-10-11T00:19:16.306Z,17.38
2017-10-11T00:20:26.955Z,17.36
2017-10-11T00:21:37.362Z,17.35
2017-10-11T00:22:47.763Z,17.32
2017-10-11T00:23:57.825Z,17.28
2017-10-11T00:25:08.226Z,17.32
2017-10-11T00:26:18.633Z,17.32
2017-10-11T00:27:29.050Z,17.28
2017-10-11T00:28:39.453Z,17.28
2017-10-11T00:29:49.895Z,17.28
2017-10-11T00:30:59.630Z,17.28
2017-10-11T00:32:09.700Z,17.32
2017-10-11T00:33:19.774Z,17.31
2017-10-11T00:34:29.837Z,17.36
2017-10-11T00:35:39.969Z,17.35
2017-10-11T00:36:50.369Z,17.3
2017-10-11T00:38:00.767Z,17.31
2017-10-11T00:39:11.169Z,17.35
2017-10-11T00:40:21.558Z,17.31
2017-10-11T00:41:32.013Z,17.35
2017-10-11T00:42:42.080Z,17.3
2017-10-11T00:43:52.477Z,17.31
2017-10-11T00:45:02.897Z,17.32
2017-10-11T00:46:12.958Z,17.31
2017-10-11T00:47:23.085Z,17.31
2017-10-11T00:48:33.501Z,17.35
2017-10-11T00:49:43.574Z,17.31
2017-10-11T00:50:53.971Z,17.36
2017-10-11T00:52:04.370Z,17.39
2017-10-11T00:53:14.489Z,17.39
2017-10-11T00:54:24.904Z,17.42
2017-10-11T00:55:35.332Z,17.36
2017-10-11T00:56:45.760Z,17.35
2017-10-11T00:57:56.176Z,17.36
2017-10-11T00:59:06.256Z,17.35
2017-10-11T01:00:16.655Z,17.31
2017-10-11T01:01:27.051Z,17.42
2017-10-11T01:02:37.134Z,17.38
2017-10-11T01:03:47.209Z,17.43
2017-10-11T01:04:57.329Z,17.36
2017-10-11T01:06:07.748Z,17.4
2017-10-11T01:07:18.149Z,17.47
2017-10-11T01:08:28.539Z,17.43
2017-10-11T01:09:38.944Z,17.39
2017-10-11T01:10:49.388Z,17.46
2017-10-11T01:11:59.466Z,17.47
2017-10-11T01:13:09.525Z,17.45
2017-10-11T01:14:19.928Z,17.46
2017-10-11T01:15:29.672Z,17.45
2017-10-11T01:16:39.781Z,17.5
2017-10-11T01:17:50.200Z,17.54
2017-10-11T01:19:00.611Z,17.5
2017-10-11T01:20:11.005Z,17.45
2017-10-11T01:21:21.076Z,17.5
2017-10-11T01:22:31.494Z,17.57
2017-10-11T01:23:41.895Z,17.49
2017-10-11T01:24:52.000Z,17.5
2017-10-11T01:26:02.396Z,17.5
2017-10-11T01:27:12.797Z,17.54
2017-10-11T01:28:23.216Z,17.57
2017-10-11T01:29:33.318Z,17.45
2017-10-11T01:30:43.399Z,17.52
2017-10-11T01:31:53.964Z,17.49
2017-10-11T01:33:05.275Z,17.52
2017-10-11T01:34:15.723Z,17.55
2017-10-11T01:35:26.124Z,17.5
2017-10-11T01:36:36.201Z,17.6
2017-10-11T01:37:46.610Z,17.58
2017-10-11T01:38:57.018Z,17.55
2017-10-11T01:40:07.297Z,17.57
2017-10-11T01:41:17.706Z,17.52
2017-10-11T01:42:28.110Z,17.54
2017-10-11T01:43:38.505Z,17.57
2017-10-11T01:44:48.911Z,17.55
2017-10-11T01:45:59.035Z,17.6
2017-10-11T01:47:09.109Z,17.54
2017-10-11T01:48:19.540Z,17.52
2017-10-11T01:49:29.621Z,17.63
2017-10-11T01:50:40.012Z,17.5
2017-10-11T01:51:50.462Z,17.65
2017-10-11T01:53:00.532Z,17.58
2017-10-11T01:54:10.632Z,17.66
2017-10-11T01:55:21.032Z,17.71
2017-10-11T01:56:31.167Z,17.69
2017-10-11T01:57:41.622Z,17.66
2017-10-11T01:58:51.742Z,17.71
2017-10-11T02:00:02.144Z,17.62
2017-10-11T02:01:12.229Z,17.65
2017-10-11T02:02:22.302Z,17.65
2017-10-11T02:03:32.385Z,17.69
2017-10-11T02:04:42.783Z,17.71
2017-10-11T02:05:53.174Z,17.69
2017-10-11T02:07:03.571Z,17.74
2017-10-11T02:08:13.648Z,17.66
2017-10-11T02:09:24.033Z,17.69
2017-10-11T02:10:34.443Z,17.63
2017-10-11T02:11:44.859Z,17.66
2017-10-11T02:12:54.949Z,17.62
2017-10-11T02:14:05.345Z,17.68
2017-10-11T02:15:15.433Z,17.74
2017-10-11T02:16:25.841Z,17.66
2017-10-11T02:17:36.255Z,17.66
2017-10-11T02:18:46.646Z,17.69
2017-10-11T02:19:57.053Z,17.76
2017-10-11T02:21:07.461Z,17.63
2017-10-11T02:22:17.873Z,17.68
2017-10-11T02:23:28.290Z,17.66
2017-10-11T02:24:38.686Z,17.69
2017-10-11T02:25:48.752Z,17.65
2017-10-11T02:26:58.826Z,17.68
2017-10-11T02:28:08.931Z,17.81
2017-10-11T02:29:19.337Z,17.69
2017-10-11T02:30:29.743Z,17.77
2017-10-11T02:31:39.822Z,17.83
2017-10-11T02:32:49.624Z,17.74
2017-10-11T02:34:00.046Z,17.73
2017-10-11T02:35:10.133Z,17.8
2017-10-11T02:36:20.526Z,17.63
2017-10-11T02:37:30.925Z,17.68
2017-10-11T02:38:41.374Z,17.68
2017-10-11T02:39:51.784Z,17.66
2017-10-11T02:41:02.190Z,17.63
2017-10-11T02:42:11.937Z,17.71
2017-10-11T02:43:22.065Z,17.69
2017-10-11T02:44:32.473Z,17.68
2017-10-11T02:45:42.908Z,17.69
2017-10-11T02:46:53.341Z,17.65
2017-10-11T02:48:03.754Z,17.76
2017-10-11T02:49:13.840Z,17.69
2017-10-11T02:50:24.249Z,17.58
2017-10-11T02:51:34.322Z,17.73
2017-10-11T02:52:44.723Z,17.68
2017-10-11T02:53:55.121Z,17.71
2017-10-11T02:55:05.522Z,17.62
2017-10-11T02:56:15.929Z,17.69
2017-10-11T02:57:26.038Z,17.68
2017-10-11T02:58:36.447Z,17.69
2017-10-11T02:59:46.180Z,17.66
2017-10-11T03:00:56.242Z,17.58
2017-10-11T03:02:06.663Z,17.69
2017-10-11T03:34:12.631Z,15.52
2017-10-11T03:35:23.032Z,15.49
2017-10-11T03:36:33.099Z,15.52
2017-10-11T03:37:42.833Z,15.6
2017-10-11T03:38:53.233Z,15.65
2017-10-11T03:40:03.676Z,15.7
2017-10-11T03:41:14.069Z,15.88
2017-10-11T03:42:24.466Z,15.86
2017-10-11T03:43:34.872Z,16.07
2017-10-11T03:44:44.932Z,16.22
2017-10-11T03:45:55.356Z,16.42
2017-10-11T03:47:05.431Z,16.47
2017-10-11T03:48:15.158Z,16.58
2017-10-11T03:49:25.550Z,16.58
2017-10-11T03:50:35.630Z,16.73
2017-10-11T03:51:46.084Z,16.91
2017-10-11T03:52:56.499Z,16.97
2017-10-11T03:54:06.922Z,17.17
2017-10-11T03:55:17.325Z,17.18
2017-10-11T03:56:27.734Z,17.31
2017-10-11T03:57:38.181Z,17.32
2017-10-11T03:58:48.599Z,17.45
2017-10-11T03:59:58.990Z,17.45
2017-10-11T04:01:09.394Z,17.54
2017-10-11T04:02:19.791Z,17.6
2017-10-11T04:03:29.942Z,17.66
2017-10-11T04:04:40.339Z,17.63
2017-10-11T04:05:50.751Z,17.73
2017-10-11T04:07:01.152Z,17.81
2017-10-11T04:08:11.553Z,17.84
2017-10-11T04:09:22.014Z,17.9
2017-10-11T04:10:32.433Z,17.95
2017-10-11T04:11:42.522Z,17.95
2017-10-11T04:12:52.928Z,17.96
2017-10-11T04:14:03.327Z,18.01
2017-10-11T04:15:13.798Z,18.03
2017-10-11T04:16:23.882Z,18.03
2017-10-11T04:17:33.956Z,18.06
2017-10-11T04:18:44.348Z,18.13
2017-10-11T04:19:54.415Z,18.08
2017-10-11T04:21:04.851Z,18.13
2017-10-11T04:22:15.300Z,18.19
2017-10-11T04:23:25.716Z,18.14
2017-10-11T04:24:35.477Z,18.21
2017-10-11T04:25:45.569Z,18.19
2017-10-11T04:26:55.695Z,18.17
2017-10-11T04:28:06.114Z,18.23
2017-10-11T04:29:16.496Z,18.19
2017-10-11T04:30:26.931Z,18.31
2017-10-11T04:31:37.340Z,18.2
2017-10-11T04:32:47.438Z,18.17
2017-10-11T04:33:57.868Z,18.23
2017-10-11T04:35:08.278Z,18.24
2017-10-11T04:36:18.365Z,18.26
2017-10-11T04:37:28.756Z,18.36
2017-10-11T04:38:39.161Z,18.38
2017-10-11T04:39:49.566Z,18.26
2017-10-11T04:40:59.956Z,18.26
2017-10-11T04:42:10.359Z,18.29
2017-10-11T04:43:20.442Z,18.29
2017-10-11T04:44:30.834Z,18.38
2017-10-11T04:45:41.248Z,18.35
2017-10-11T04:46:51.648Z,18.34
2017-10-11T04:48:02.035Z,18.35
2017-10-11T04:49:12.110Z,18.41
2017-10-11T04:50:22.191Z,18.32
2017-10-11T04:51:32.598Z,18.32
2017-10-11T04:52:43.011Z,18.42
2017-10-11T04:53:53.408Z,18.45
2017-10-11T04:55:03.809Z,18.42
2017-10-11T04:56:14.270Z,18.47
2017-10-11T04:57:24.337Z,18.47
2017-10-11T04:58:34.108Z,18.54
2017-10-11T04:59:44.528Z,18.51
2017-10-11T05:00:54.936Z,18.5
2017-10-11T05:02:05.363Z,18.44
2017-10-11T05:03:15.757Z,18.47
2017-10-11T05:04:26.158Z,18.49
2017-10-11T05:05:35.259Z,18.54
2017-10-11T05:06:45.684Z,18.54
2017-10-11T05:07:56.096Z,18.57
2017-10-11T05:09:06.171Z,18.54
2017-10-11T05:10:16.600Z,18.56
2017-10-11T05:11:27.004Z,18.59
2017-10-11T05:12:37.398Z,18.6
2017-10-11T05:13:47.472Z,18.57
2017-10-11T05:14:57.564Z,18.59
2017-10-11T05:16:07.978Z,18.61
2017-10-11T05:17:18.088Z,18.63
2017-10-11T05:18:28.159Z,18.61
2017-10-11T05:19:38.271Z,18.63
2017-10-11T05:20:48.671Z,18.66
2017-10-11T05:21:59.085Z,18.69
2017-10-11T05:23:09.171Z,18.72
2017-10-11T05:24:19.580Z,18.72
2017-10-11T05:25:29.695Z,18.68
2017-10-11T05:26:39.766Z,18.72
2017-10-11T05:27:49.836Z,18.81
2017-10-11T05:28:59.915Z,18.72
2017-10-11T05:30:10.319Z,18.79
2017-10-11T05:31:20.445Z,18.89
2017-10-11T05:32:30.845Z,18.86
2017-10-11T05:33:41.293Z,18.81
2017-10-11T05:34:51.725Z,18.82
2017-10-11T05:36:02.145Z,18.87
2017-10-11T05:37:12.217Z,18.9
2017-10-11T05:38:22.633Z,18.94
2017-10-11T05:39:32.713Z,18.96
2017-10-11T05:40:43.120Z,18.97
2017-10-11T05:41:53.539Z,18.99
2017-10-11T05:43:03.995Z,18.96
2017-10-11T05:44:14.069Z,19.06
2017-10-11T05:45:24.466Z,19.06
2017-10-11T05:46:34.871Z,18.97
2017-10-11T05:47:44.966Z,19.02
2017-10-11T05:48:55.071Z,19.06
2017-10-11T05:50:05.479Z,18.94
2017-10-11T05:51:15.895Z,19
2017-10-11T05:52:26.299Z,19.1
2017-10-11T05:53:36.052Z,19.09
2017-10-11T05:54:46.507Z,19.09
2017-10-11T05:55:56.272Z,19.16
2017-10-11T05:57:06.337Z,19.24
2017-10-11T05:58:16.445Z,19.25
2017-10-11T05:59:26.854Z,19.31
2017-10-11T06:00:36.992Z,19.32
2017-10-11T06:01:47.081Z,19.38
2017-10-11T06:02:57.482Z,19.35
2017-10-11T06:04:07.552Z,19.43
2017-10-11T06:05:17.957Z,19.5
2017-10-11T06:06:28.361Z,19.52
2017-10-11T06:07:38.773Z,19.52
2017-10-11T06:08:48.839Z,19.56
2017-10-11T06:09:59.237Z,19.63
2017-10-11T06:11:09.653Z,19.55
2017-10-11T06:12:20.054Z,19.65
2017-10-11T06:13:30.472Z,19.65
2017-10-11T06:14:40.549Z,19.57
2017-10-11T06:15:50.944Z,19.63
2017-10-11T06:17:01.353Z,19.63
2017-10-11T06:18:12.093Z,19.53
2017-10-11T06:19:22.515Z,19.45
2017-10-11T06:20:32.914Z,19.53
2017-10-11T06:21:43.318Z,19.46
2017-10-11T06:22:53.430Z,19.46
2017-10-11T06:24:03.503Z,19.47
2017-10-11T06:25:13.917Z,19.45
2017-10-11T06:26:24.309Z,19.47
2017-10-11T06:27:34.374Z,19.37
2017-10-11T06:28:44.800Z,19.25
2017-10-11T06:29:55.267Z,19.19
2017-10-11T06:31:05.710Z,19.23
2017-10-11T06:32:16.110Z,19.17
2017-10-11T06:33:26.196Z,19.15
2017-10-11T06:34:36.257Z,19.23
2017-10-11T06:35:46.708Z,19.19
2017-10-11T06:36:57.112Z,19.3
2017-10-11T06:38:07.530Z,19.28
2017-10-11T06:39:17.946Z,19.35
2017-10-11T06:40:28.342Z,19.47
2017-10-11T06:41:38.738Z,19.52
2017-10-11T06:42:49.155Z,19.46
2017-10-11T06:43:59.228Z,19.45
2017-10-11T06:45:09.665Z,19.47
2017-10-11T06:46:19.741Z,19.45
2017-10-11T06:47:30.724Z,19.34
2017-10-11T06:48:40.790Z,19.42
2017-10-11T06:49:51.186Z,19.43
2017-10-11T06:51:01.273Z,19.47
2017-10-11T06:52:11.687Z,19.61
2017-10-11T06:53:21.792Z,19.82
2017-10-11T06:54:32.185Z,19.93
2017-10-11T06:55:42.576Z,20.04
2017-10-11T06:56:52.321Z,20.19
2017-10-11T06:58:02.719Z,20.26
2017-10-11T06:59:13.126Z,20.37
2017-10-11T07:00:23.521Z,20.38
2017-10-11T07:01:33.933Z,20.46
2017-10-11T07:02:44.344Z,20.6
2017-10-11T07:03:54.763Z,20.72
2017-10-11T07:05:05.207Z,20.76
2017-10-11T07:06:15.306Z,20.86
2017-10-11T07:07:25.732Z,20.96
2017-10-11T07:08:36.139Z,20.96
2017-10-11T07:09:46.688Z,21.03
2017-10-11T07:10:57.086Z,21.11
2017-10-11T07:12:07.500Z,21.21
2017-10-11T07:13:17.911Z,21.15
2017-10-11T07:14:28.302Z,21.27
2017-10-11T07:15:38.393Z,21.31
2017-10-11T07:16:48.843Z,21.41
2017-10-11T07:17:59.247Z,21.49
2017-10-11T07:19:09.333Z,21.51
2017-10-11T07:20:19.405Z,21.51
2017-10-11T07:21:29.794Z,21.56
2017-10-11T07:22:40.212Z,21.59
2017-10-11T07:23:50.631Z,21.59
2017-10-11T07:25:00.369Z,21.71
2017-10-11T07:26:10.779Z,21.68
2017-10-11T07:27:20.876Z,21.71
2017-10-11T07:28:31.279Z,21.83
2017-10-11T07:29:41.691Z,21.76
2017-10-11T07:30:52.093Z,21.7
2017-10-11T07:32:02.492Z,21.73
2017-10-11T07:33:12.274Z,21.85
2017-10-11T07:34:22.675Z,21.89
2017-10-11T07:35:32.430Z,21.94
2017-10-11T07:36:42.860Z,22.08
2017-10-11T07:37:53.264Z,22.18
2017-10-11T07:39:03.664Z,22.23
2017-10-11T07:40:13.408Z,22.09
2017-10-11T07:41:23.832Z,22
2017-10-11T07:42:33.917Z,21.96
2017-10-11T07:43:43.985Z,22.08
2017-10-11T07:44:54.380Z,22.18
2017-10-11T07:46:04.804Z,22.26
2017-10-11T07:47:15.227Z,22.29
2017-10-11T07:48:25.315Z,22.36
2017-10-11T07:49:35.702Z,22.46
2017-10-11T07:50:46.119Z,22.63
2017-10-11T07:51:56.575Z,22.67
2017-10-11T07:53:06.986Z,22.81
2017-10-11T07:54:17.403Z,22.92
2017-10-11T07:55:27.466Z,22.99
2017-10-11T07:56:37.893Z,23.16
2017-10-11T07:57:48.294Z,23.18
2017-10-11T07:58:58.691Z,23.16
2017-10-11T08:00:09.089Z,23.18
2017-10-11T08:01:19.507Z,23.21
2017-10-11T08:02:29.977Z,23.19
2017-10-11T08:03:40.429Z,23.42
2017-10-11T08:04:50.845Z,23.47
2017-10-11T08:06:01.258Z,23.52
2017-10-11T08:07:11.674Z,23.57
2017-10-11T08:08:22.089Z,23.56
2017-10-11T08:09:32.552Z,23.59
2017-10-11T08:10:42.633Z,23.72
2017-10-11T08:11:52.719Z,23.67
2017-10-11T08:13:03.144Z,23.72
2017-10-11T08:14:13.541Z,23.75
2017-10-11T08:15:23.995Z,23.79
2017-10-11T08:16:34.388Z,23.77
2017-10-11T08:17:44.147Z,23.78
2017-10-11T08:18:54.598Z,23.96
2017-10-11T08:20:07.331Z,24
2017-10-11T08:21:20.615Z,24.17
2017-10-11T08:22:31.041Z,24.36
2017-10-11T08:23:41.183Z,24.48
2017-10-11T08:24:51.624Z,24.67
2017-10-11T08:26:01.715Z,24.9
2017-10-11T08:27:11.836Z,25.04
2017-10-11T08:28:22.268Z,25.3
2017-10-11T08:29:32.688Z,25.52
2017-10-11T08:30:43.109Z,25.71
2017-10-11T08:31:53.556Z,25.82
2017-10-11T08:33:03.683Z,26.04
2017-10-11T08:34:13.785Z,26.11
2017-10-11T08:35:24.221Z,26.3
2017-10-11T08:36:34.641Z,26.23
2017-10-11T08:37:45.067Z,26.27
2017-10-11T08:38:55.530Z,26.31
2017-10-11T08:40:05.939Z,26.34
2017-10-11T08:41:16.024Z,26.42
2017-10-11T08:42:26.448Z,26.47
2017-10-11T08:43:36.858Z,26.45
2017-10-11T08:44:47.353Z,26.61
2017-10-11T08:45:57.773Z,26.69
2017-10-11T08:47:08.202Z,26.64
2017-10-11T08:48:18.286Z,26.68
2017-10-11T08:49:28.727Z,26.68
2017-10-11T08:50:40.310Z,26.69
2017-10-11T08:51:50.739Z,26.61
2017-10-11T08:53:01.185Z,26.63
2017-10-11T08:54:11.640Z,26.67
2017-10-11T08:55:22.102Z,26.67
2017-10-11T08:56:32.559Z,26.6
2017-10-11T08:57:42.999Z,26.6
2017-10-11T08:58:53.443Z,26.63
2017-10-11T09:00:03.893Z,26.53
2017-10-11T09:01:14.002Z,26.61
2017-10-11T09:02:24.462Z,26.44
2017-10-11T09:03:34.541Z,26.49
2017-10-11T09:04:44.648Z,26.47
2017-10-11T09:05:55.078Z,26.54
2017-10-11T09:07:04.835Z,26.61
2017-10-11T09:08:15.312Z,26.59
2017-10-11T09:09:25.735Z,26.57
2017-10-11T09:10:35.830Z,26.5
2017-10-11T09:11:46.267Z,26.41
2017-10-11T09:12:56.678Z,26.3
2017-10-11T09:14:07.140Z,26.16
2017-10-11T09:15:17.552Z,26.12
2017-10-11T09:16:27.645Z,26
2017-10-11T09:17:37.736Z,25.96
2017-10-11T09:18:48.171Z,25.91
2017-10-11T09:19:58.658Z,25.86
2017-10-11T09:21:09.074Z,25.82
2017-10-11T09:22:19.477Z,25.71
2017-10-11T09:23:29.900Z,25.59
2017-10-11T09:24:39.986Z,25.49
2017-10-11T09:25:50.135Z,25.41
2017-10-11T09:27:00.245Z,25.32
2017-10-11T09:28:10.844Z,25.26
2017-10-11T09:29:21.271Z,25.26
2017-10-11T09:30:31.322Z,25.29
2017-10-11T09:31:41.933Z,25.29
2017-10-11T09:32:52.421Z,25.29
2017-10-11T09:34:02.504Z,25.22
2017-10-11T09:35:12.945Z,25.14
2017-10-11T09:36:23.382Z,25.17
2017-10-11T09:37:33.844Z,25.12
2017-10-11T09:38:44.265Z,25.05
2017-10-11T09:39:54.721Z,24.97
2017-10-11T09:41:05.139Z,25.02
2017-10-11T09:42:15.576Z,24.94
2017-10-11T09:43:26.020Z,24.93
2017-10-11T09:44:36.454Z,24.93
2017-10-11T09:45:46.516Z,25.05
2017-10-11T09:46:56.615Z,25.14
2017-10-11T09:48:07.045Z,25.11
2017-10-11T09:49:17.476Z,25.37
2017-10-11T09:50:27.565Z,25.51
2017-10-11T09:51:38.195Z,25.64
2017-10-11T09:52:48.611Z,25.85
2017-10-11T09:53:59.027Z,25.99
2017-10-11T09:55:09.457Z,26.15
2017-10-11T09:56:19.522Z,26.3
2017-10-11T09:57:29.605Z,26.35
2017-10-11T09:58:39.697Z,26.44
2017-10-11T09:59:50.114Z,26.64
2017-10-11T10:01:00.586Z,26.71
2017-10-11T10:02:10.664Z,26.79
2017-10-11T10:03:21.075Z,26.96
2017-10-11T10:04:31.496Z,27.04
2017-10-11T10:05:41.906Z,27.08
2017-10-11T10:06:52.372Z,27.06
2017-10-11T10:08:02.148Z,27.08
2017-10-11T10:09:12.587Z,27.21
2017-10-11T10:10:23.006Z,27.31
2017-10-11T10:11:33.436Z,27.26
2017-10-11T10:12:43.897Z,27.21
2017-10-11T10:13:54.321Z,27.08
2017-10-11T10:15:04.726Z,27.11
2017-10-11T10:16:14.815Z,27.06
2017-10-11T10:17:25.224Z,26.96
2017-10-11T10:18:35.674Z,27.06
2017-10-11T10:19:46.805Z,27.09
2017-10-11T10:20:57.212Z,27.15
2017-10-11T10:22:07.614Z,27.15
2017-10-11T10:23:18.033Z,27.21
2017-10-11T10:24:29.369Z,27.36
2017-10-11T10:25:40.695Z,27.45
2017-10-11T10:26:50.779Z,27.49
2017-10-11T10:28:01.205Z,27.49
2017-10-11T10:29:11.635Z,27.59
2017-10-11T10:30:21.783Z,27.59
2017-10-11T10:31:32.202Z,27.65
2017-10-11T10:32:42.627Z,27.66
2017-10-11T10:33:52.714Z,27.69
2017-10-11T10:35:03.133Z,27.62
2017-10-11T10:36:13.564Z,27.62
2017-10-11T10:37:23.976Z,27.48
2017-10-11T10:38:34.411Z,27.55
2017-10-11T10:39:44.842Z,27.49
2017-10-11T10:40:55.244Z,27.53
2017-10-11T10:42:05.709Z,27.52
2017-10-11T10:43:16.154Z,27.49
2017-10-11T10:44:26.592Z,27.52
2017-10-11T10:45:37.041Z,27.62
2017-10-11T10:46:47.451Z,27.55
2017-10-11T10:47:57.872Z,27.61
2017-10-11T10:49:08.293Z,27.55
2017-10-11T10:50:18.399Z,27.41
2017-10-11T10:51:28.171Z,27.15
2017-10-11T10:52:38.573Z,27
2017-10-11T10:53:49.049Z,26.79
2017-10-11T10:54:59.483Z,26.57
2017-10-11T10:56:09.593Z,26.42
2017-10-11T10:57:20.029Z,26.44
2017-10-11T10:58:30.438Z,26.31
2017-10-11T10:59:40.908Z,26.27
2017-10-11T11:00:51.322Z,26.17
2017-10-11T11:02:01.791Z,26.15
2017-10-11T11:03:12.306Z,26.09
2017-10-11T11:04:22.858Z,26.15
2017-10-11T11:05:33.382Z,26.23
2017-10-11T11:06:43.524Z,26.5
2017-10-11T11:07:53.990Z,26.91
2017-10-11T11:09:04.112Z,27.42
2017-10-11T11:10:14.253Z,27.84
2017-10-11T11:11:24.728Z,28.26
2017-10-11T11:12:35.189Z,28.26
2017-10-11T11:13:45.637Z,28.17
2017-10-11T11:14:56.075Z,27.96
2017-10-11T11:16:06.549Z,27.9
2017-10-11T11:17:17.017Z,27.94
2017-10-11T11:18:27.463Z,28.03
2017-10-11T11:19:37.919Z,27.96
2017-10-11T11:20:48.012Z,27.89
2017-10-11T11:21:58.441Z,27.76
2017-10-11T11:23:08.262Z,27.69
2017-10-11T11:24:18.679Z,27.57
2017-10-11T11:25:29.100Z,27.53
2017-10-11T11:26:39.528Z,27.49
2017-10-11T11:27:49.955Z,27.53
2017-10-11T11:28:59.804Z,27.45
2017-10-11T11:30:10.226Z,27.45
2017-10-11T11:31:20.641Z,27.24
2017-10-11T11:32:30.759Z,27.11
2017-10-11T11:33:40.883Z,26.91
2017-10-11T11:34:51.384Z,26.75
2017-10-11T11:36:01.483Z,26.45
2017-10-11T11:37:11.924Z,26.45
2017-10-11T11:38:22.353Z,26.79
2017-10-11T11:39:32.783Z,27.05
2017-10-11T11:40:43.216Z,27.21
2017-10-11T11:41:53.675Z,27.27
2017-10-11T11:43:04.079Z,27.42
2017-10-11T11:44:14.198Z,27.62
2017-10-11T11:45:24.616Z,27.61
2017-10-11T11:46:35.125Z,27.61
2017-10-11T11:47:45.211Z,27.76
2017-10-11T11:48:54.968Z,27.69
2017-10-11T11:50:05.387Z,27.64
2017-10-11T11:51:15.736Z,27.64
2017-10-11T11:52:26.190Z,27.66
2017-10-11T11:53:36.763Z,27.66
2017-10-11T11:54:47.401Z,27.64
2017-10-11T11:55:57.526Z,27.69
2017-10-11T11:57:07.957Z,27.71
2017-10-11T11:58:18.449Z,27.76
2017-10-11T11:59:28.538Z,27.79
2017-10-11T12:00:38.650Z,27.87
2017-10-11T12:01:49.088Z,27.86
2017-10-11T12:02:59.202Z,27.68
2017-10-11T12:04:09.678Z,27.71
2017-10-11T12:05:20.113Z,27.68
2017-10-11T12:06:30.534Z,27.91
2017-10-11T12:07:40.957Z,27.8
2017-10-11T12:08:51.361Z,27.81
2017-10-11T12:10:01.820Z,27.86
2017-10-11T12:11:12.270Z,27.94
2017-10-11T12:12:22.355Z,27.66
2017-10-11T12:13:32.433Z,27.08
2017-10-11T12:14:42.863Z,26.84
2017-10-11T12:15:53.303Z,26.68
2017-10-11T12:17:03.741Z,26.54
2017-10-11T12:18:13.871Z,26.64
2017-10-11T12:19:24.294Z,27.01
2017-10-11T12:20:34.728Z,27.12
2017-10-11T12:21:45.166Z,27.23
2017-10-11T12:22:55.887Z,27.43
2017-10-11T12:24:06.337Z,27.37
2017-10-11T12:25:16.788Z,27.16
2017-10-11T12:26:27.219Z,26.97
2017-10-11T12:27:37.695Z,27.04
2017-10-11T12:28:48.141Z,26.93
2017-10-11T12:29:58.560Z,27.08
2017-10-11T12:31:09.021Z,26.86
2017-10-11T12:32:19.455Z,26.99
2017-10-11T12:33:29.616Z,26.99
2017-10-11T12:34:40.040Z,27.05
2017-10-11T12:35:50.478Z,27.09
2017-10-11T12:37:00.899Z,27.15
2017-10-11T12:38:11.038Z,27.09
2017-10-11T12:39:21.162Z,27.18
2017-10-11T12:40:31.589Z,27.28
2017-10-11T12:41:41.702Z,27.36
2017-10-11T12:42:52.153Z,27.42
2017-10-11T12:44:02.844Z,27.57
2017-10-11T12:45:13.324Z,27.52
2017-10-11T12:46:23.440Z,27.66
2017-10-11T12:47:33.854Z,27.79
2017-10-11T12:48:44.291Z,27.89
2017-10-11T12:49:54.385Z,27.94
2017-10-11T12:51:04.823Z,27.93
2017-10-11T12:52:15.282Z,27.83
2017-10-11T12:53:25.855Z,27.68
2017-10-11T12:54:36.100Z,27.59
2017-10-11T12:55:46.518Z,27.43
2017-10-11T12:56:56.707Z,27.38
2017-10-11T12:58:07.117Z,27.21
2017-10-11T12:59:17.207Z,27.21
2017-10-11T13:00:27.620Z,27.24
2017-10-11T13:01:38.037Z,27.24
2017-10-11T13:02:48.524Z,27.18
2017-10-11T13:03:58.648Z,27.11
2017-10-11T13:05:09.090Z,27.18
2017-10-11T13:06:19.178Z,27.19
2017-10-11T13:07:29.603Z,27.21
2017-10-11T13:08:40.023Z,27.16
2017-10-11T13:09:50.465Z,27.09
2017-10-11T13:11:00.896Z,27.06
2017-10-11T13:12:11.323Z,27.11
2017-10-11T13:13:21.750Z,27.23
2017-10-11T13:14:32.235Z,27.24
2017-10-11T13:15:42.660Z,27.28
2017-10-11T13:16:53.102Z,27.23
2017-10-11T13:18:03.558Z,27.16
2017-10-11T13:19:13.980Z,27.13
2017-10-11T13:20:24.129Z,27.09
2017-10-11T13:21:34.576Z,27.09
2017-10-11T13:22:45.001Z,27.04
2017-10-11T13:23:55.430Z,26.91
2017-10-11T13:25:05.531Z,26.93
2017-10-11T13:26:15.686Z,26.86
2017-10-11T13:27:26.188Z,26.89
2017-10-11T13:28:36.630Z,26.82
2017-10-11T13:29:46.758Z,26.72
2017-10-11T13:30:57.224Z,26.71
2017-10-11T13:32:07.698Z,26.69
2017-10-11T13:33:18.139Z,26.68
2017-10-11T13:34:28.563Z,26.68
2017-10-11T13:35:38.667Z,26.69
2017-10-11T13:36:49.095Z,26.54
2017-10-11T13:37:59.583Z,26.38
2017-10-11T13:39:10.005Z,26.17
2017-10-11T13:40:20.119Z,26.11
2017-10-11T13:41:30.206Z,25.97
2017-10-11T13:42:40.633Z,26.01
2017-10-11T13:43:51.119Z,26.12
2017-10-11T13:45:01.566Z,26.19
2017-10-11T13:46:11.987Z,26.19
2017-10-11T13:47:22.110Z,26.47
2017-10-11T13:48:32.196Z,26.42
2017-10-11T13:49:42.676Z,26.41
2017-10-11T13:50:54.028Z,26.34
2017-10-11T13:52:04.476Z,26.11
2017-10-11T13:53:14.562Z,26.16
2017-10-11T13:54:25.037Z,26.03
2017-10-11T13:55:35.470Z,26.12
2017-10-11T13:56:45.899Z,26.22
2017-10-11T13:57:56.332Z,26.24
2017-10-11T13:59:06.423Z,26.3
2017-10-11T14:00:16.866Z,26.32
2017-10-11T14:01:27.354Z,26.26
2017-10-11T14:02:37.790Z,26.27
2017-10-11T14:03:47.888Z,26.35
2017-10-11T14:04:57.654Z,26.42
2017-10-11T14:06:08.115Z,26.53
2017-10-11T14:07:18.557Z,26.63
2017-10-11T14:08:28.980Z,26.6
2017-10-11T14:09:39.402Z,26.67
2017-10-11T14:10:49.826Z,26.84
2017-10-11T14:12:00.273Z,26.9
2017-10-11T14:13:10.430Z,26.94
2017-10-11T14:14:21.091Z,26.91
2017-10-11T14:15:31.197Z,26.84
2017-10-11T14:16:41.626Z,26.82
2017-10-11T14:17:51.720Z,26.81
2017-10-11T14:19:02.178Z,26.6
2017-10-11T14:20:12.619Z,26.39
2017-10-11T14:21:22.712Z,26.37
2017-10-11T14:22:32.833Z,26.37
2017-10-11T14:23:43.261Z,26.24
2017-10-11T14:24:53.724Z,26.19
2017-10-11T14:26:03.826Z,25.96
2017-10-11T14:27:14.248Z,25.97
2017-10-11T14:28:24.663Z,25.88
2017-10-11T14:29:35.101Z,25.79
2017-10-11T14:30:45.515Z,25.78
2017-10-11T14:31:55.604Z,25.7
2017-10-11T14:33:06.048Z,25.66
2017-10-11T14:34:16.460Z,25.56
2017-10-11T14:35:26.864Z,25.48
2017-10-11T14:36:37.003Z,25.44
2017-10-11T14:37:47.421Z,25.37
2017-10-11T14:38:57.845Z,25.37
2017-10-11T14:40:07.931Z,25.24
2017-10-11T14:41:18.026Z,25.2
2017-10-11T14:42:27.790Z,25.17
2017-10-11T14:43:38.210Z,25.12
2017-10-11T14:44:48.642Z,25.02
2017-10-11T14:45:59.076Z,24.92
2017-10-11T14:47:09.177Z,24.86
2017-10-11T14:48:19.633Z,24.87
2017-10-11T14:49:30.046Z,24.71
2017-10-11T14:50:40.465Z,24.74
2017-10-11T14:51:50.906Z,24.67
2017-10-11T14:53:01.011Z,24.69
2017-10-11T14:54:11.153Z,24.67
2017-10-11T14:55:21.569Z,24.7
2017-10-11T14:56:31.325Z,24.75
2017-10-11T14:57:41.421Z,24.66
2017-10-11T14:58:51.861Z,24.69
2017-10-11T15:00:02.016Z,24.64
2017-10-11T15:01:12.446Z,24.58
2017-10-11T15:02:22.882Z,24.59
2017-10-11T15:03:32.957Z,24.55
2017-10-11T15:04:43.384Z,24.55
2017-10-11T15:05:53.858Z,24.46
2017-10-11T15:07:03.941Z,24.45
2017-10-11T15:08:14.356Z,24.33
2017-10-11T15:09:24.825Z,24.26
2017-10-11T15:10:35.252Z,24.29
2017-10-11T15:11:45.724Z,24.29
2017-10-11T15:12:56.195Z,24.18
2017-10-11T15:14:06.602Z,24.15
2017-10-11T15:15:16.699Z,24.22
2017-10-11T15:16:27.127Z,24.21
2017-10-11T15:17:37.597Z,24.17
2017-10-11T15:18:48.025Z,24.11
2017-10-11T15:19:58.457Z,24.08
2017-10-11T15:21:08.539Z,24.09
2017-10-11T15:22:18.943Z,24.04
2017-10-11T15:23:29.081Z,24.02
2017-10-11T15:24:39.499Z,24.03
2017-10-11T15:25:49.604Z,23.94
2017-10-11T15:26:59.681Z,24.03
2017-10-11T15:28:10.101Z,23.92
2017-10-11T15:29:19.895Z,23.9
2017-10-11T15:30:30.312Z,23.89
2017-10-11T15:31:40.057Z,23.82
2017-10-11T15:32:50.475Z,23.85
2017-10-11T15:34:00.909Z,23.79
2017-10-11T15:35:11.371Z,23.82
2017-10-11T15:36:21.479Z,23.82
2017-10-11T15:37:31.925Z,23.84
2017-10-11T15:38:42.366Z,23.79
2017-10-11T15:39:52.457Z,23.71
2017-10-11T15:41:02.937Z,23.78
2017-10-11T15:42:13.361Z,23.64
2017-10-11T15:43:23.891Z,23.64
2017-10-11T15:44:34.346Z,23.7